Time;durP1;ratioP1;P1;durP2;ratioP2;P2;SDS_P1;SDS_P2;PMS_P1;PMS_P2;Temp;Humidity;BMP_temperature;BMP_pressure;BME280_temperature;BME280_humidity;BME280_pressure;Samples;Min_cycle;Max_cycle;Signal;HPM_P1;HPM_P2
2022/10/24 00:01:29;;;;;;;2.10;1.40;;;;;;;17.39;67.06;100502.97;4906330;28;96792;-46
2022/10/24 00:03:54;;;;;;;6.63;1.90;;;;;;;17.37;66.96;100511.13;4906632;28;96911;-46
2022/10/24 00:06:20;;;;;;;3.80;1.53;;;;;;;17.38;67.09;100507.06;4905919;28;100973;-46
2022/10/24 00:08:47;;;;;;;1.60;1.50;;;;;;;17.39;67.13;100507.78;4902611;28;97788;-46
2022/10/24 00:11:16;;;;;;;1.93;1.70;;;;;;;17.41;67.06;100513.59;4899068;28;96843;-46
2022/10/24 00:13:42;;;;;;;1.70;1.20;;;;;;;17.40;67.12;100514.84;4902593;28;97020;-47
2022/10/24 00:16:07;;;;;;;6.93;1.53;;;;;;;17.38;66.97;100507.06;4900290;28;97134;-46
2022/10/24 00:18:33;;;;;;;3.63;1.20;;;;;;;17.38;67.10;100518.19;4902768;28;97377;-46
2022/10/24 00:20:58;;;;;;;1.40;1.30;;;;;;;17.37;66.98;100521.50;4902748;28;97436;-46
2022/10/24 00:23:23;;;;;;;1.97;1.40;;;;;;;17.35;67.22;100516.47;4906014;28;97316;-46
2022/10/24 00:25:49;;;;;;;1.53;1.43;;;;;;;17.34;67.12;100517.78;4903941;28;97236;-47
2022/10/24 00:28:14;;;;;;;13.67;1.77;;;;;;;17.32;67.17;100522.41;4903761;28;99683;-46
2022/10/24 00:30:39;;;;;;;2.37;1.43;;;;;;;17.32;67.01;100525.19;4902695;28;97036;-46
2022/10/24 00:33:05;;;;;;;1.90;1.10;;;;;;;17.29;67.07;100527.00;4904623;28;102605;-46
2022/10/24 00:35:30;;;;;;;1.87;1.43;;;;;;;17.27;67.08;100529.56;4900085;28;101446;-47
2022/10/24 00:37:56;;;;;;;4.63;1.30;;;;;;;17.24;67.00;100525.84;4904914;28;97164;-47
2022/10/24 00:40:21;;;;;;;1.30;1.20;;;;;;;17.21;66.97;100517.84;4904717;28;97401;-46
2022/10/24 00:42:48;;;;;;;3.30;1.57;;;;;;;17.18;66.81;100528.00;4905003;28;97050;-46
2022/10/24 00:45:40;;;;;;;13.80;1.57;;;;;;;17.13;67.00;100528.88;4902663;28;96827;-46
2022/10/24 00:48:18;;;;;;;1.93;1.10;;;;;;;17.07;67.04;100528.28;4903338;28;97479;-46
2022/10/24 00:50:45;;;;;;;0.90;0.90;;;;;;;17.02;66.95;100525.59;4904227;28;97142;-46
2022/10/24 00:53:13;;;;;;;2.30;1.30;;;;;;;16.99;66.96;100521.88;4904318;28;97035;-46
2022/10/24 00:55:39;;;;;;;5.30;1.50;;;;;;;16.98;66.86;100558.53;4902708;28;97411;-46
2022/10/24 00:58:05;;;;;;;4.60;1.60;;;;;;;16.95;66.91;100531.84;4903533;28;96926;-45
2022/10/24 01:00:32;;;;;;;1.07;0.90;;;;;;;16.90;66.84;100525.13;4904235;28;97225;-47
2022/10/24 01:02:59;;;;;;;0.97;0.97;;;;;;;16.85;66.92;100526.00;4901918;28;98132;-47
2022/10/24 01:05:30;;;;;;;2.10;1.10;;;;;;;16.82;66.66;100512.44;4901203;28;97765;-47
2022/10/24 01:08:16;;;;;;;3.93;1.30;;;;;;;16.77;66.63;100502.19;4900888;28;97152;-45
2022/10/24 01:10:57;;;;;;;1.10;1.10;;;;;;;16.68;66.70;100510.97;4904671;28;97273;-45
2022/10/24 01:13:29;;;;;;;1.27;0.93;;;;;;;16.61;66.67;100498.47;4904532;28;102075;-47
2022/10/24 01:16:12;;;;;;;3.67;1.00;;;;;;;16.55;66.54;100495.09;4900776;28;101991;-47
2022/10/24 01:18:48;;;;;;;3.73;1.10;;;;;;;16.48;66.67;100507.56;4903729;28;97494;-47
2022/10/24 01:21:29;;;;;;;3.27;1.50;;;;;;;16.44;66.53;100509.16;4903870;28;97287;-48
2022/10/24 01:24:25;;;;;;;1.40;1.10;;;;;;;16.38;66.71;100500.94;4902114;28;99783;-46
2022/10/24 01:27:13;;;;;;;5.80;0.90;;;;;;;16.31;66.81;100498.84;4902298;28;100349;-47
2022/10/24 01:30:00;;;;;;;10.43;1.60;;;;;;;16.31;66.96;100500.84;4905000;28;97210;-48
2022/10/24 01:32:34;;;;;;;3.20;1.43;;;;;;;16.32;66.83;100499.56;4900930;28;97565;-47
2022/10/24 01:35:20;;;;;;;1.30;1.20;;;;;;;16.30;66.84;100491.03;4901448;28;97200;-47
2022/10/24 01:38:01;;;;;;;3.40;0.83;;;;;;;16.27;66.77;100484.50;4901765;28;101685;-53
2022/10/24 01:41:02;;;;;;;0.80;0.80;;;;;;;16.25;66.71;100483.56;4902494;28;97057;-48
2022/10/24 01:43:34;;;;;;;8.20;1.17;;;;;;;16.23;66.86;100492.41;4878640;28;97406;-46
2022/10/24 01:46:08;;;;;;;4.93;1.20;;;;;;;16.25;66.88;100497.47;4903311;28;96926;-46
2022/10/24 01:48:48;;;;;;;6.90;1.10;;;;;;;16.24;66.90;100487.63;4902813;28;98440;-45
2022/10/24 01:51:16;;;;;;;5.10;1.60;;;;;;;16.25;66.93;100483.56;4904062;28;97017;-47
2022/10/24 01:53:44;;;;;;;2.80;1.33;;;;;;;16.25;66.83;100489.84;4902778;28;97286;-47
2022/10/24 01:56:09;;;;;;;3.20;1.60;;;;;;;16.25;66.91;100489.13;4902506;28;97755;-46
2022/10/24 01:58:34;;;;;;;1.53;1.40;;;;;;;16.26;66.98;100477.47;4903122;28;97169;-48
2022/10/24 02:01:04;;;;;;;1.73;1.20;;;;;;;16.25;66.79;100464.88;4904729;28;109547;-46
2022/10/24 02:03:34;;;;;;;3.03;1.33;;;;;;;16.26;66.81;100469.16;4905461;28;97362;-46
2022/10/24 02:06:12;;;;;;;2.93;1.00;;;;;;;16.25;66.73;100462.09;4906720;28;97137;-46
2022/10/24 02:08:43;;;;;;;2.90;1.20;;;;;;;16.25;66.92;100455.81;4903194;28;101874;-46
2022/10/24 02:11:09;;;;;;;2.00;1.23;;;;;;;16.25;66.91;100466.91;4905258;28;97286;-46
2022/10/24 02:13:58;;;;;;;3.57;1.27;;;;;;;16.26;66.88;100452.50;4902819;28;97050;-46
2022/10/24 02:16:24;;;;;;;1.37;1.27;;;;;;;16.23;66.82;100461.88;4904345;28;100648;-47
2022/10/24 02:18:53;;;;;;;3.80;1.60;;;;;;;16.23;66.86;100453.56;4901748;28;97906;-46
2022/10/24 02:21:53;;;;;;;1.73;1.20;;;;;;;16.23;67.09;100450.03;4904920;28;97398;-46
2022/10/24 02:24:33;;;;;;;4.30;1.43;;;;;;;16.24;67.17;100463.38;4905745;28;97004;-47
2022/10/24 02:27:11;;;;;;;2.03;1.30;;;;;;;16.23;67.07;100453.56;4906567;28;101982;-46
2022/10/24 02:30:14;;;;;;;10.50;1.40;;;;;;;16.21;67.45;100450.56;4905005;28;100142;-47
2022/10/24 02:32:46;;;;;;;2.70;1.13;;;;;;;16.22;67.14;100440.97;4861703;28;97047;-46
2022/10/24 02:35:14;;;;;;;2.70;1.13;;;;;;;16.21;66.95;100439.47;4901878;28;97255;-46
2022/10/24 02:37:43;;;;;;;1.40;1.20;;;;;;;16.20;66.98;100440.75;4902863;28;97658;-46
2022/10/24 02:40:11;;;;;;;4.97;1.33;;;;;;;16.19;66.99;100427.41;4905595;28;97640;-46
2022/10/24 02:42:39;;;;;;;7.47;1.33;;;;;;;16.16;67.21;100429.22;4905617;28;97945;-45
2022/10/24 02:45:06;;;;;;;7.90;1.30;;;;;;;16.16;67.05;100429.22;4908383;28;96969;-46
2022/10/24 02:47:32;;;;;;;8.43;1.40;;;;;;;16.17;67.11;100435.53;4903632;28;97916;-46
2022/10/24 02:49:58;;;;;;;1.70;1.47;;;;;;;16.17;67.15;100438.31;4904544;28;97182;-46
2022/10/24 02:52:24;;;;;;;2.90;1.70;;;;;;;16.18;67.24;100445.34;4903789;28;97174;-46
2022/10/24 02:54:49;;;;;;;2.80;1.40;;;;;;;16.19;67.21;100446.84;4906138;28;96904;-47
2022/10/24 02:57:15;;;;;;;3.70;1.80;;;;;;;16.22;67.19;100454.84;4904936;28;97754;-47
2022/10/24 02:59:40;;;;;;;2.33;1.70;;;;;;;16.23;67.15;100439.69;4905874;28;97376;-46
2022/10/24 03:02:06;;;;;;;3.33;1.43;;;;;;;16.22;67.14;100438.19;4903682;28;109090;-46
2022/10/24 03:04:32;;;;;;;2.20;1.10;;;;;;;16.21;67.08;100433.91;4900246;28;97169;-49
2022/10/24 03:06:57;;;;;;;10.33;1.40;;;;;;;16.21;67.17;100442.25;4903499;28;113391;-47
2022/10/24 03:09:23;;;;;;;4.07;1.77;;;;;;;16.20;67.18;100421.34;4904517;28;97158;-47
2022/10/24 03:11:48;;;;;;;6.20;1.63;;;;;;;16.21;67.04;100413.72;4902365;28;97489;-46
2022/10/24 03:14:14;;;;;;;9.70;1.70;;;;;;;16.20;67.22;100413.00;4904276;28;96941;-46
2022/10/24 03:16:39;;;;;;;3.07;1.50;;;;;;;16.19;67.13;100403.19;4905887;28;97279;-47
2022/10/24 03:19:04;;;;;;;10.53;1.40;;;;;;;16.20;67.17;100406.72;4905172;28;97292;-46
2022/10/24 03:21:30;;;;;;;3.43;1.80;;;;;;;16.20;67.17;100410.22;4904754;28;97011;-46
2022/10/24 03:23:55;;;;;;;4.77;1.60;;;;;;;16.19;67.27;100417.06;4907167;28;97088;-47
2022/10/24 03:26:21;;;;;;;6.73;1.80;;;;;;;16.22;67.20;100418.00;4904799;28;97320;-47
2022/10/24 03:28:46;;;;;;;11.83;1.80;;;;;;;16.22;67.30;100429.88;4905221;28;98628;-46
2022/10/24 03:31:11;;;;;;;2.70;1.67;;;;;;;16.24;67.26;100413.41;4905672;28;102044;-46
2022/10/24 03:33:37;;;;;;;2.53;1.70;;;;;;;16.26;67.32;100410.09;4904530;28;99715;-46
2022/10/24 03:36:04;;;;;;;4.33;1.73;;;;;;;16.26;67.24;100396.97;4900400;28;104064;-47
2022/10/24 03:38:29;;;;;;;5.30;1.20;;;;;;;16.25;67.31;100397.53;4903626;28;97253;-46
2022/10/24 03:40:55;;;;;;;4.60;1.90;;;;;;;16.25;67.25;100405.84;4906017;28;97261;-46
2022/10/24 03:43:20;;;;;;;2.33;1.77;;;;;;;16.25;67.47;100412.13;4905065;28;97527;-46
2022/10/24 03:45:46;;;;;;;2.07;1.40;;;;;;;16.27;67.44;100408.84;4903433;28;98447;-46
2022/10/24 03:48:11;;;;;;;3.53;1.50;;;;;;;16.26;67.37;100402.53;4905153;28;97173;-46
2022/10/24 03:50:36;;;;;;;2.63;1.60;;;;;;;16.25;67.24;100398.25;4898973;28;97672;-46
2022/10/24 03:53:02;;;;;;;3.50;1.80;;;;;;;16.26;67.47;100399.75;4902298;28;97720;-47
2022/10/24 03:55:28;;;;;;;4.07;1.40;;;;;;;16.24;67.52;100405.09;4902379;28;97268;-46
2022/10/24 03:57:54;;;;;;;4.20;1.40;;;;;;;16.27;67.57;100403.28;4893193;28;99027;-47
2022/10/24 04:00:19;;;;;;;1.57;1.20;;;;;;;16.28;67.64;100399.97;4900173;28;97092;-46
2022/10/24 04:02:46;;;;;;;1.77;1.67;;;;;;;16.29;67.57;100398.66;4899868;28;97528;-47
2022/10/24 04:05:12;;;;;;;3.03;1.53;;;;;;;16.31;67.65;100393.34;4903556;28;96733;-46
2022/10/24 04:07:38;;;;;;;6.90;2.00;;;;;;;16.33;67.70;100401.13;4902153;28;97387;-47
2022/10/24 04:10:05;;;;;;;3.43;1.63;;;;;;;16.35;67.69;100393.75;4902550;28;97016;-46
2022/10/24 04:12:30;;;;;;;1.93;1.40;;;;;;;16.36;67.69;100402.81;4903973;28;97364;-46
2022/10/24 04:14:56;;;;;;;1.47;1.47;;;;;;;16.36;67.54;100411.13;4905813;28;99948;-46
2022/10/24 04:17:21;;;;;;;1.60;1.50;;;;;;;16.35;67.59;100409.66;4903591;28;98498;-46
2022/10/24 04:19:47;;;;;;;4.70;1.70;;;;;;;16.33;67.44;100426.84;4900449;28;96812;-47
2022/10/24 04:22:12;;;;;;;3.20;2.00;;;;;;;16.31;67.56;100415.56;4900026;28;97107;-46
2022/10/24 04:24:38;;;;;;;7.77;1.83;;;;;;;16.30;67.58;100416.81;4903213;28;97275;-46
2022/10/24 04:27:04;;;;;;;6.20;2.00;;;;;;;16.31;67.51;100423.88;4907650;28;98347;-46
2022/10/24 04:29:29;;;;;;;4.47;1.70;;;;;;;16.31;67.57;100412.78;4901403;28;97233;-46
2022/10/24 04:31:55;;;;;;;7.20;2.10;;;;;;;16.30;67.74;100414.03;4903281;28;97145;-46
2022/10/24 04:34:20;;;;;;;2.50;1.70;;;;;;;16.30;67.66;100411.28;4904620;28;110388;-46
2022/10/24 04:36:45;;;;;;;1.90;1.80;;;;;;;16.30;67.81;100410.50;4903423;28;113457;-46
2022/10/24 04:39:11;;;;;;;8.23;1.83;;;;;;;16.31;67.66;100410.00;4899834;28;112888;-46
2022/10/24 04:41:36;;;;;;;1.70;1.60;;;;;;;16.31;67.65;100404.44;4899528;28;96781;-46
2022/10/24 04:44:02;;;;;;;4.20;2.20;;;;;;;16.32;67.66;100399.63;4903023;28;98487;-47
2022/10/24 04:46:27;;;;;;;2.27;2.03;;;;;;;16.32;67.65;100405.91;4904245;28;96871;-47
2022/10/24 04:48:52;;;;;;;2.80;1.63;;;;;;;16.34;67.70;100405.38;4907510;28;97225;-45
2022/10/24 04:51:18;;;;;;;3.07;2.10;;;;;;;16.34;67.83;100405.38;4901470;28;99469;-48
2022/10/24 04:53:43;;;;;;;4.60;1.90;;;;;;;16.34;67.83;100403.34;4902458;28;96999;-47
2022/10/24 04:56:09;;;;;;;3.30;2.00;;;;;;;16.35;67.82;100404.09;4906323;28;96999;-51
2022/10/24 04:58:34;;;;;;;4.93;1.80;;;;;;;16.34;67.81;100414.44;4899003;28;97273;-47
2022/10/24 05:00:59;;;;;;;3.80;1.50;;;;;;;16.35;67.90;100418.75;4904684;28;105494;-48
2022/10/24 05:03:25;;;;;;;7.30;2.00;;;;;;;16.36;67.79;100417.44;4904092;28;104834;-47
2022/10/24 05:05:50;;;;;;;4.87;1.67;;;;;;;16.34;67.91;100414.44;4904415;28;97009;-48
2022/10/24 05:08:16;;;;;;;4.00;2.07;;;;;;;16.32;67.81;100411.47;4905907;28;101261;-47
2022/10/24 05:10:42;;;;;;;4.07;1.97;;;;;;;16.32;67.86;100411.47;4902330;28;96732;-47
2022/10/24 05:13:08;;;;;;;1.63;1.50;;;;;;;16.33;68.03;100418.53;4902665;28;97680;-46
2022/10/24 05:15:33;;;;;;;2.93;1.70;;;;;;;16.35;67.93;100409.66;4902071;28;97500;-47
2022/10/24 05:17:59;;;;;;;1.83;1.60;;;;;;;16.36;67.92;100416.69;4898821;28;97342;-47
2022/10/24 05:20:24;;;;;;;1.50;1.20;;;;;;;16.36;67.97;100419.47;4905133;28;97060;-47
2022/10/24 05:22:50;;;;;;;3.67;1.90;;;;;;;16.38;68.04;100417.66;4901605;28;96917;-46
2022/10/24 05:25:15;;;;;;;5.20;1.60;;;;;;;16.38;68.02;100414.16;4902825;28;97549;-47
2022/10/24 05:27:41;;;;;;;4.67;2.00;;;;;;;16.38;67.88;100408.59;4904108;28;96993;-47
2022/10/24 05:30:07;;;;;;;3.23;1.93;;;;;;;16.37;67.89;100410.63;4903911;28;107299;-46
2022/10/24 05:32:32;;;;;;;3.57;1.47;;;;;;;16.38;67.79;100409.31;4902585;28;96905;-47
2022/10/24 05:34:58;;;;;;;2.10;1.93;;;;;;;16.36;67.78;100411.88;4905596;28;97451;-47
2022/10/24 05:37:23;;;;;;;4.10;1.43;;;;;;;16.34;67.78;100403.34;4906708;28;97423;-47
2022/10/24 05:39:48;;;;;;;2.43;2.00;;;;;;;16.32;67.61;100414.25;4907633;28;97038;-45
2022/10/24 05:42:14;;;;;;;4.77;1.40;;;;;;;16.29;67.73;100406.97;4908466;28;104554;-47
2022/10/24 05:44:39;;;;;;;7.50;2.30;;;;;;;16.28;67.65;100401.97;4906971;28;96818;-46
2022/10/24 05:47:05;;;;;;;6.03;1.90;;;;;;;16.25;67.74;100403.06;4905443;28;97318;-47
2022/10/24 05:49:30;;;;;;;5.03;1.93;;;;;;;16.23;67.69;100406.38;4904073;28;96883;-47
2022/10/24 05:51:55;;;;;;;6.40;2.40;;;;;;;16.23;67.70;100402.84;4908623;28;97008;-45
2022/10/24 05:54:21;;;;;;;8.23;1.90;;;;;;;16.21;67.58;100397.84;4907531;28;96987;-47
2022/10/24 05:56:46;;;;;;;3.47;1.70;;;;;;;16.18;67.49;100390.59;4904459;28;97375;-47
2022/10/24 05:59:12;;;;;;;2.77;2.10;;;;;;;16.16;67.54;100393.13;4902621;28;98403;-47
2022/10/24 06:01:37;;;;;;;1.70;1.60;;;;;;;16.15;67.49;100388.13;4906364;28;114662;-46
2022/10/24 06:04:03;;;;;;;3.10;2.30;;;;;;;16.12;67.55;100389.94;4907019;28;97690;-47
2022/10/24 06:06:28;;;;;;;5.83;2.07;;;;;;;16.10;67.50;100389.75;4905935;28;97060;-47
2022/10/24 06:08:53;;;;;;;8.37;2.13;;;;;;;16.09;67.62;100393.81;4909323;28;97039;-47
2022/10/24 06:11:19;;;;;;;6.97;1.80;;;;;;;16.07;67.59;100401.94;4903390;28;97132;-46
2022/10/24 06:13:44;;;;;;;5.50;1.77;;;;;;;16.08;67.67;100389.53;4901746;28;97029;-47
2022/10/24 06:16:10;;;;;;;2.90;1.97;;;;;;;16.08;67.66;100395.09;4903998;28;96971;-47
2022/10/24 06:18:37;;;;;;;3.70;2.07;;;;;;;16.10;67.62;100398.06;4907622;28;97282;-47
2022/10/24 06:21:04;;;;;;;5.90;2.30;;;;;;;16.11;67.64;100393.28;4905484;28;97339;-47
2022/10/24 06:23:30;;;;;;;4.77;1.93;;;;;;;16.12;67.60;100397.56;4904853;28;97067;-46
2022/10/24 06:25:56;;;;;;;4.17;2.17;;;;;;;16.13;67.75;100399.03;4908012;28;97330;-46
2022/10/24 06:28:21;;;;;;;4.53;2.23;;;;;;;16.13;67.73;100404.56;4904739;28;96953;-47
2022/10/24 06:30:48;;;;;;;3.13;2.30;;;;;;;16.13;67.54;100410.88;4905141;28;97671;-47
2022/10/24 06:33:14;;;;;;;4.70;2.37;;;;;;;16.15;67.66;100399.97;4905187;28;97757;-47
2022/10/24 06:35:39;;;;;;;3.17;2.50;;;;;;;16.15;67.72;100407.56;4905041;28;96996;-48
2022/10/24 06:38:05;;;;;;;2.40;2.10;;;;;;;16.17;67.75;100416.84;4906912;28;97065;-47
2022/10/24 06:40:31;;;;;;;3.10;2.00;;;;;;;16.18;67.73;100409.28;4908378;28;97072;-47
2022/10/24 06:42:56;;;;;;;4.90;2.73;;;;;;;16.20;67.62;100407.47;4902987;28;97073;-47
2022/10/24 06:45:22;;;;;;;4.27;1.90;;;;;;;16.23;67.49;100405.63;4903421;28;97291;-46
2022/10/24 06:47:48;;;;;;;4.73;2.40;;;;;;;16.20;67.60;100407.47;4906817;28;97161;-47
2022/10/24 06:50:14;;;;;;;14.17;2.50;;;;;;;16.19;67.77;100414.28;4910136;28;97558;-47
2022/10/24 06:52:39;;;;;;;2.60;2.13;;;;;;;16.23;67.72;100419.50;4898720;28;97331;-47
2022/10/24 06:55:05;;;;;;;3.33;2.33;;;;;;;16.26;67.86;100418.44;4903620;28;96898;-48
2022/10/24 06:57:30;;;;;;;5.60;2.47;;;;;;;16.29;67.82;100420.16;4905570;28;96899;-47
2022/10/24 06:59:56;;;;;;;4.83;2.43;;;;;;;16.31;67.86;100426.66;4906987;28;112228;-47
2022/10/24 07:02:21;;;;;;;7.37;2.47;;;;;;;16.35;68.01;100424.28;4903558;28;102502;-46
2022/10/24 07:04:47;;;;;;;2.67;2.40;;;;;;;16.41;67.91;100438.03;4909854;28;97790;-46
2022/10/24 07:07:20;;;;;;;4.40;2.70;;;;;;;16.47;67.91;100427.56;4901865;28;102069;-47
2022/10/24 07:09:54;;;;;;;5.20;2.50;;;;;;;16.52;68.06;100439.84;4905468;28;96853;-47
2022/10/24 07:12:23;;;;;;;7.17;1.83;;;;;;;16.55;67.99;100438.78;4905534;28;97031;-45
2022/10/24 07:14:48;;;;;;;5.27;2.70;;;;;;;16.58;68.09;100449.56;4906537;28;97597;-47
2022/10/24 07:17:15;;;;;;;4.70;2.50;;;;;;;16.63;68.04;100450.72;4905373;28;96871;-48
2022/10/24 07:19:40;;;;;;;11.67;2.80;;;;;;;16.65;68.09;100454.44;4903559;28;97229;-45
2022/10/24 07:22:06;;;;;;;2.73;2.20;;;;;;;16.72;67.97;100461.38;4905595;28;97799;-46
2022/10/24 07:24:31;;;;;;;4.57;1.97;;;;;;;16.74;67.94;100448.44;4904534;28;96806;-46
2022/10/24 07:26:56;;;;;;;3.57;2.17;;;;;;;16.77;67.98;100452.94;4902694;28;97093;-47
2022/10/24 07:29:22;;;;;;;4.77;2.23;;;;;;;16.79;67.85;100455.91;4904791;28;103311;-47
2022/10/24 07:31:47;;;;;;;2.73;2.30;;;;;;;16.82;67.92;100454.81;4904227;28;100158;-46
2022/10/24 07:34:13;;;;;;;3.50;2.17;;;;;;;16.85;68.03;100458.53;4905252;28;97103;-47
2022/10/24 07:36:39;;;;;;;3.57;2.10;;;;;;;16.87;68.07;100459.50;4905805;28;97025;-46
2022/10/24 07:39:04;;;;;;;2.27;2.07;;;;;;;16.91;68.15;100459.91;4906138;28;99407;-47
2022/10/24 07:41:31;;;;;;;6.40;1.80;;;;;;;16.95;68.13;100454.03;4906807;28;98013;-47
2022/10/24 07:44:00;;;;;;;3.00;2.37;;;;;;;16.99;68.07;100460.00;4900557;28;97146;-47
2022/10/24 07:46:26;;;;;;;3.13;2.23;;;;;;;17.02;68.22;100454.09;4908814;28;96723;-45
2022/10/24 07:48:52;;;;;;;5.50;2.27;;;;;;;17.06;68.14;100462.09;4900740;28;97369;-47
2022/10/24 07:51:18;;;;;;;8.97;2.30;;;;;;;17.09;67.98;100463.78;4901673;28;97220;-47
2022/10/24 07:53:44;;;;;;;4.60;2.30;;;;;;;17.15;68.20;100458.84;4903052;28;96805;-53
2022/10/24 07:56:13;;;;;;;6.50;2.40;;;;;;;17.19;68.22;100451.66;4907710;28;97137;-47
2022/10/24 07:58:39;;;;;;;3.27;2.13;;;;;;;17.23;68.24;100457.59;4904787;28;97581;-47
2022/10/24 08:01:06;;;;;;;4.10;2.47;;;;;;;17.30;68.28;100456.19;4907123;28;97363;-46
2022/10/24 08:03:32;;;;;;;7.60;2.97;;;;;;;17.37;68.40;100457.53;4902447;28;96834;-47
2022/10/24 08:05:58;;;;;;;6.50;1.87;;;;;;;17.42;68.29;100459.44;4905965;28;97146;-45
2022/10/24 08:08:23;;;;;;;4.40;1.97;;;;;;;17.47;68.41;100453.75;4904873;28;99001;-48
2022/10/24 08:10:48;;;;;;;5.80;2.13;;;;;;;17.52;68.28;100455.66;4903511;28;97273;-47
2022/10/24 08:13:14;;;;;;;7.80;2.70;;;;;;;17.55;68.62;100454.56;4902912;28;97002;-48
2022/10/24 08:15:39;;;;;;;5.80;1.90;;;;;;;17.60;68.47;100448.13;4902391;28;96830;-47
2022/10/24 08:18:05;;;;;;;7.77;3.03;;;;;;;17.63;68.43;100441.44;4903400;28;96989;-52
2022/10/24 08:20:30;;;;;;;8.83;2.40;;;;;;;17.66;68.44;100448.72;4905702;28;98529;-47
2022/10/24 08:22:56;;;;;;;3.30;3.00;;;;;;;17.71;68.38;100445.00;4904206;28;97024;-47
2022/10/24 08:25:21;;;;;;;3.07;2.10;;;;;;;17.75;68.52;100447.47;4901797;28;97059;-48
2022/10/24 08:27:46;;;;;;;3.27;2.07;;;;;;;17.80;68.61;100454.94;4903096;28;96793;-46
2022/10/24 08:30:12;;;;;;;3.33;2.17;;;;;;;17.86;68.50;100453.47;4903472;28;97268;-47
2022/10/24 08:32:39;;;;;;;8.47;2.50;;;;;;;17.91;68.38;100447.00;4905083;28;97379;-48
2022/10/24 08:35:05;;;;;;;3.63;2.40;;;;;;;17.99;68.44;100444.25;4902939;28;97056;-47
2022/10/24 08:37:31;;;;;;;3.33;2.30;;;;;;;18.03;68.53;100463.38;4905725;28;98416;-47
2022/10/24 08:39:56;;;;;;;18.23;2.13;;;;;;;18.11;68.54;100442.66;4905236;28;96900;-47
2022/10/24 08:42:23;;;;;;;6.37;2.20;;;;;;;18.19;68.34;100437.13;4909078;28;100896;-47
2022/10/24 08:44:50;;;;;;;3.90;1.90;;;;;;;18.24;68.55;100439.72;4899368;28;97168;-46
2022/10/24 08:47:34;;;;;;;8.00;2.47;;;;;;;18.30;68.32;100440.34;4906474;28;96881;-46
2022/10/24 08:50:20;;;;;;;7.03;2.67;;;;;;;18.39;68.79;100437.00;4900383;28;101336;-47
2022/10/24 08:52:47;;;;;;;5.00;2.00;;;;;;;18.45;68.56;100439.66;4902608;28;98315;-47
2022/10/24 08:55:24;;;;;;;3.90;1.87;;;;;;;18.51;68.86;100440.25;4903762;28;97419;-47
2022/10/24 08:57:56;;;;;;;4.93;1.97;;;;;;;18.55;68.47;100443.41;4902692;28;98718;-47
2022/10/24 09:00:25;;;;;;;7.83;2.03;;;;;;;18.61;68.37;100446.75;4903791;28;97212;-47
2022/10/24 09:03:05;;;;;;;5.43;1.83;;;;;;;18.69;67.93;100441.97;4902618;28;96938;-46
2022/10/24 09:05:39;;;;;;;1.40;1.30;;;;;;;18.78;68.01;100438.66;4901670;28;96902;-46
2022/10/24 09:08:54;;;;;;;3.50;1.80;;;;;;;18.86;68.29;100431.03;4905065;28;98845;-47
2022/10/24 09:11:28;;;;;;;4.83;1.43;;;;;;;18.92;67.91;100428.81;4843296;28;100208;-47
2022/10/24 09:13:54;;;;;;;1.80;1.37;;;;;;;18.98;68.06;100432.16;4899094;28;99037;-44
2022/10/24 09:16:22;;;;;;;3.07;1.50;;;;;;;19.05;67.71;100425.09;4902879;28;97125;-48
2022/10/24 09:18:51;;;;;;;4.60;1.60;;;;;;;19.13;67.74;100432.16;4906254;28;96849;-47
2022/10/24 09:21:17;;;;;;;3.63;1.33;;;;;;;19.21;67.51;100432.16;4899020;28;97214;-47
2022/10/24 09:23:43;;;;;;;3.30;1.60;;;;;;;19.28;67.34;100432.19;4902395;28;97306;-46
2022/10/24 09:26:21;;;;;;;2.77;1.30;;;;;;;19.41;66.94;100425.69;4902319;28;96608;-47
2022/10/24 09:28:46;;;;;;;3.33;1.70;;;;;;;19.50;67.08;100441.88;4899791;28;99033;-47
2022/10/24 09:31:18;;;;;;;3.83;1.90;;;;;;;19.57;66.94;100435.53;4901749;28;96733;-47
2022/10/24 09:33:46;;;;;;;5.90;1.63;;;;;;;19.64;66.71;100429.19;4904825;28;96875;-46
2022/10/24 09:36:14;;;;;;;4.90;1.33;;;;;;;19.72;66.59;100448.72;4904095;28;96758;-47
2022/10/24 09:38:42;;;;;;;2.70;1.33;;;;;;;19.80;66.30;100438.28;4903783;28;102827;-47
2022/10/24 09:41:23;;;;;;;3.83;1.03;;;;;;;19.88;65.71;100439.00;4901642;28;97467;-47
2022/10/24 09:44:27;;;;;;;3.37;1.50;;;;;;;19.94;64.73;100440.28;4903663;28;96704;-47
2022/10/24 09:46:53;;;;;;;1.30;1.20;;;;;;;20.02;65.62;100438.22;4888979;28;97631;-47
2022/10/24 09:49:22;;;;;;;2.83;1.10;;;;;;;20.05;65.38;100433.56;4903077;28;96985;-47
2022/10/24 09:52:02;;;;;;;2.80;1.30;;;;;;;20.10;64.66;100429.81;4902487;28;96994;-46
2022/10/24 09:54:30;;;;;;;1.90;1.33;;;;;;;20.13;64.99;100440.63;4903683;28;96959;-47
2022/10/24 09:57:10;;;;;;;2.30;1.47;;;;;;;20.20;64.01;100439.09;4901792;28;97069;-47
2022/10/24 09:59:40;;;;;;;2.60;0.93;;;;;;;20.22;64.76;100436.50;4902000;28;101798;-47
2022/10/24 10:02:09;;;;;;;1.70;1.17;;;;;;;20.27;64.26;100435.53;4902198;28;98284;-47
2022/10/24 10:04:35;;;;;;;8.53;1.43;;;;;;;20.32;64.27;100426.22;4903060;28;96973;-46
2022/10/24 10:07:08;;;;;;;3.03;1.03;;;;;;;20.39;63.44;100433.81;4899211;28;97029;-47
2022/10/24 10:09:40;;;;;;;5.23;1.10;;;;;;;20.46;64.12;100432.31;4902928;28;97646;-47
2022/10/24 10:12:20;;;;;;;6.27;1.10;;;;;;;20.52;63.73;100436.38;4905889;28;97005;-47
2022/10/24 10:14:46;;;;;;;1.70;0.70;;;;;;;20.55;63.20;100442.88;4903763;28;98792;-46
2022/10/24 10:17:20;;;;;;;2.90;0.93;;;;;;;20.63;62.21;100447.13;4896821;28;97582;-47
2022/10/24 10:19:47;;;;;;;3.97;1.10;;;;;;;20.69;63.05;100441.28;4903491;28;101973;-48
2022/10/24 10:22:28;;;;;;;6.50;1.37;;;;;;;20.76;61.55;100446.84;4908708;28;97275;-47
2022/10/24 10:24:55;;;;;;;1.93;0.83;;;;;;;20.84;62.81;100458.72;4905807;28;99023;-47
2022/10/24 10:27:29;;;;;;;1.87;0.90;;;;;;;20.97;61.79;100456.97;4906579;28;96930;-46
2022/10/24 10:30:13;;;;;;;1.93;0.90;;;;;;;21.00;60.65;100453.03;4905563;28;100613;-47
2022/10/24 10:33:09;;;;;;;4.20;1.30;;;;;;;21.03;60.52;100449.88;4904705;28;100331;-47
2022/10/24 10:36:03;;;;;;;0.93;0.80;;;;;;;21.00;60.27;100458.63;4903950;28;98041;-48
2022/10/24 10:38:46;;;;;;;2.13;1.00;;;;;;;20.96;60.51;100461.84;4904380;28;98065;-47
2022/10/24 10:41:27;;;;;;;1.73;1.20;;;;;;;20.87;60.78;100466.00;4904434;28;101950;-47
2022/10/24 10:44:30;;;;;;;3.47;0.90;;;;;;;20.81;59.93;100456.34;4905791;28;97441;-47
2022/10/24 10:47:34;;;;;;;3.03;1.00;;;;;;;20.78;60.69;100477.03;4904904;28;96872;-47
2022/10/24 10:50:00;;;;;;;1.60;0.90;;;;;;;20.76;61.73;100460.84;4905080;28;98031;-47
2022/10/24 10:52:46;;;;;;;3.67;1.47;;;;;;;20.74;60.86;100457.88;4902863;28;97284;-46
2022/10/24 10:55:21;;;;;;;4.73;1.23;;;;;;;20.74;60.85;100459.91;4909616;28;97001;-46
2022/10/24 10:57:55;;;;;;;1.67;1.10;;;;;;;20.71;61.45;100459.00;4905317;28;96807;-47
2022/10/24 11:00:45;;;;;;;6.40;1.20;;;;;;;20.71;61.55;100459.00;4906646;28;96899;-46
2022/10/24 11:03:49;;;;;;;2.13;0.90;;;;;;;20.69;60.20;100461.63;4904156;28;101927;-47
2022/10/24 11:06:31;;;;;;;7.40;1.33;;;;;;;20.71;60.67;100464.59;4902251;28;100003;-47
2022/10/24 11:09:23;;;;;;;1.60;1.27;;;;;;;20.74;60.09;100462.72;4903504;28;97400;-47
2022/10/24 11:12:16;;;;;;;3.97;0.90;;;;;;;20.75;60.21;100469.81;4902305;28;97668;-47
2022/10/24 11:14:47;;;;;;;6.00;1.30;;;;;;;20.76;61.06;100466.44;4904903;28;100709;-47
2022/10/24 11:17:21;;;;;;;3.80;1.43;;;;;;;20.78;60.53;100468.66;4904450;28;97383;-47
2022/10/24 11:20:15;;;;;;;1.37;0.90;;;;;;;20.81;59.57;100476.66;4909618;28;96979;-46
2022/10/24 11:23:07;;;;;;;5.00;1.33;;;;;;;20.87;59.94;100476.44;4900998;28;96945;-47
2022/10/24 11:25:59;;;;;;;3.30;0.90;;;;;;;20.92;60.14;100470.59;4895593;28;100687;-47
2022/10/24 11:28:38;;;;;;;4.60;1.30;;;;;;;20.99;59.85;100465.53;4893272;28;100185;-47
2022/10/24 11:31:14;;;;;;;2.17;0.80;;;;;;;21.03;59.51;100471.47;4904141;28;96817;-47
2022/10/24 11:34:01;;;;;;;2.57;1.37;;;;;;;21.01;58.81;100474.13;4903715;28;98279;-45
2022/10/24 11:36:34;;;;;;;6.03;1.10;;;;;;;21.01;59.81;100483.25;4902184;28;100586;-45
2022/10/24 11:39:10;;;;;;;2.50;1.07;;;;;;;21.03;59.69;100480.66;4904081;28;102864;-47